sensor_id;sensor_type;location;lat;lon;timestamp;temperature;humidity
20722;DHT22;10522;52.198;9.890;2023-03-15T00:01:38;1.50;99.90
20722;DHT22;10522;52.198;9.890;2023-03-15T00:04:03;1.50;99.90
20722;DHT22;10522;52.198;9.890;2023-03-15T00:06:32;1.40;99.90
20722;DHT22;10522;52.198;9.890;2023-03-15T00:08:59;1.40;99.90
20722;DHT22;10522;52.198;9.890;2023-03-15T00:11:27;1.40;99.90
20722;DHT22;10522;52.198;9.890;2023-03-15T00:13:52;1.40;99.90
20722;DHT22;10522;52.198;9.890;2023-03-15T00:16:18;1.40;99.90
20722;DHT22;10522;52.198;9.890;2023-03-15T00:18:44;1.50;99.90
20722;DHT22;10522;52.198;9.890;2023-03-15T00:21:11;1.60;99.90
20722;DHT22;10522;52.198;9.890;2023-03-15T00:23:37;1.60;99.90
20722;DHT22;10522;52.198;9.890;2023-03-15T00:26:03;1.70;99.90
20722;DHT22;10522;52.198;9.890;2023-03-15T00:28:29;1.60;99.90
20722;DHT22;10522;52.198;9.890;2023-03-15T00:31:15;1.60;99.90
20722;DHT22;10522;52.198;9.890;2023-03-15T00:33:41;1.70;99.90
20722;DHT22;10522;52.198;9.890;2023-03-15T00:36:07;1.60;99.90
20722;DHT22;10522;52.198;9.890;2023-03-15T00:38:35;1.70;99.90
20722;DHT22;10522;52.198;9.890;2023-03-15T00:41:12;1.70;99.90
20722;DHT22;10522;52.198;9.890;2023-03-15T00:43:38;1.70;99.90
20722;DHT22;10522;52.198;9.890;2023-03-15T00:46:04;1.70;99.90
20722;DHT22;10522;52.198;9.890;2023-03-15T00:48:31;1.70;99.90
20722;DHT22;10522;52.198;9.890;2023-03-15T00:51:12;1.80;99.90
20722;DHT22;10522;52.198;9.890;2023-03-15T00:53:40;1.70;99.90
20722;DHT22;10522;52.198;9.890;2023-03-15T00:56:08;1.70;99.90
20722;DHT22;10522;52.198;9.890;2023-03-15T00:58:34;1.70;99.90
20722;DHT22;10522;52.198;9.890;2023-03-15T01:01:05;1.80;99.90
20722;DHT22;10522;52.198;9.890;2023-03-15T01:03:31;1.80;99.90
20722;DHT22;10522;52.198;9.890;2023-03-15T01:05:56;1.70;99.90
20722;DHT22;10522;52.198;9.890;2023-03-15T01:08:22;1.80;99.90
20722;DHT22;10522;52.198;9.890;2023-03-15T01:10:48;1.80;99.90
20722;DHT22;10522;52.198;9.890;2023-03-15T01:13:14;1.80;99.90
20722;DHT22;10522;52.198;9.890;2023-03-15T01:15:44;1.90;99.90
20722;DHT22;10522;52.198;9.890;2023-03-15T01:18:10;2.00;99.90
20722;DHT22;10522;52.198;9.890;2023-03-15T01:20:35;2.00;99.90
20722;DHT22;10522;52.198;9.890;2023-03-15T01:23:01;2.10;99.90
20722;DHT22;10522;52.198;9.890;2023-03-15T01:25:27;2.20;99.90
20722;DHT22;10522;52.198;9.890;2023-03-15T01:27:52;2.10;99.90
20722;DHT22;10522;52.198;9.890;2023-03-15T01:30:18;2.00;99.90
20722;DHT22;10522;52.198;9.890;2023-03-15T01:32:43;2.00;99.90
20722;DHT22;10522;52.198;9.890;2023-03-15T01:35:09;2.00;99.90
20722;DHT22;10522;52.198;9.890;2023-03-15T01:37:35;2.00;99.90
20722;DHT22;10522;52.198;9.890;2023-03-15T01:40:01;2.00;99.90
20722;DHT22;10522;52.198;9.890;2023-03-15T01:42:26;2.00;99.90
20722;DHT22;10522;52.198;9.890;2023-03-15T01:44:57;2.00;99.90
20722;DHT22;10522;52.198;9.890;2023-03-15T01:47:27;2.00;99.90
20722;DHT22;10522;52.198;9.890;2023-03-15T01:50:08;2.00;99.90
20722;DHT22;10522;52.198;9.890;2023-03-15T01:52:38;2.00;99.90
20722;DHT22;10522;52.198;9.890;2023-03-15T01:55:07;2.10;99.90
20722;DHT22;10522;52.198;9.890;2023-03-15T01:57:42;2.00;99.90
20722;DHT22;10522;52.198;9.890;2023-03-15T02:00:16;1.90;99.90
20722;DHT22;10522;52.198;9.890;2023-03-15T02:02:56;1.90;99.90
20722;DHT22;10522;52.198;9.890;2023-03-15T02:05:32;2.00;99.90
20722;DHT22;10522;52.198;9.890;2023-03-15T02:08:00;2.00;99.90
20722;DHT22;10522;52.198;9.890;2023-03-15T02:10:31;2.00;99.90
20722;DHT22;10522;52.198;9.890;2023-03-15T02:12:59;2.10;99.90
20722;DHT22;10522;52.198;9.890;2023-03-15T02:15:26;2.20;99.90
20722;DHT22;10522;52.198;9.890;2023-03-15T02:17:52;2.30;99.90
20722;DHT22;10522;52.198;9.890;2023-03-15T02:23:13;2.40;99.90
20722;DHT22;10522;52.198;9.890;2023-03-15T02:25:57;2.40;99.90
20722;DHT22;10522;52.198;9.890;2023-03-15T02:28:27;2.50;99.90
20722;DHT22;10522;52.198;9.890;2023-03-15T02:30:53;2.50;99.90
20722;DHT22;10522;52.198;9.890;2023-03-15T02:33:41;2.50;99.90
20722;DHT22;10522;52.198;9.890;2023-03-15T02:36:28;2.40;99.90
20722;DHT22;10522;52.198;9.890;2023-03-15T02:38:55;2.40;99.90
20722;DHT22;10522;52.198;9.890;2023-03-15T02:41:32;2.40;99.90
20722;DHT22;10522;52.198;9.890;2023-03-15T02:44:06;2.40;99.90
20722;DHT22;10522;52.198;9.890;2023-03-15T02:46:33;2.40;99.90
20722;DHT22;10522;52.198;9.890;2023-03-15T02:49:00;2.30;99.90
20722;DHT22;10522;52.198;9.890;2023-03-15T02:51:28;2.30;99.90
20722;DHT22;10522;52.198;9.890;2023-03-15T02:53:54;2.30;99.90
20722;DHT22;10522;52.198;9.890;2023-03-15T02:56:20;2.30;99.90
20722;DHT22;10522;52.198;9.890;2023-03-15T02:58:46;2.30;99.90
20722;DHT22;10522;52.198;9.890;2023-03-15T03:01:13;2.40;99.90
20722;DHT22;10522;52.198;9.890;2023-03-15T03:03:41;2.40;99.90
20722;DHT22;10522;52.198;9.890;2023-03-15T03:06:07;2.30;99.90
20722;DHT22;10522;52.198;9.890;2023-03-15T03:08:33;2.40;99.90
20722;DHT22;10522;52.198;9.890;2023-03-15T03:10:58;2.40;99.90
20722;DHT22;10522;52.198;9.890;2023-03-15T03:13:24;2.30;99.90
20722;DHT22;10522;52.198;9.890;2023-03-15T03:15:49;2.30;99.90
20722;DHT22;10522;52.198;9.890;2023-03-15T03:18:23;2.30;99.90
20722;DHT22;10522;52.198;9.890;2023-03-15T03:20:49;2.20;99.90
20722;DHT22;10522;52.198;9.890;2023-03-15T03:23:14;2.20;99.90
20722;DHT22;10522;52.198;9.890;2023-03-15T03:25:40;2.30;99.90
20722;DHT22;10522;52.198;9.890;2023-03-15T03:28:06;2.30;99.90
20722;DHT22;10522;52.198;9.890;2023-03-15T03:30:33;2.20;99.90
20722;DHT22;10522;52.198;9.890;2023-03-15T03:32:59;2.20;99.90
20722;DHT22;10522;52.198;9.890;2023-03-15T03:35:24;2.20;99.90
20722;DHT22;10522;52.198;9.890;2023-03-15T03:37:50;2.20;99.90
20722;DHT22;10522;52.198;9.890;2023-03-15T03:40:18;2.20;99.90
20722;DHT22;10522;52.198;9.890;2023-03-15T03:42:44;2.10;99.90
20722;DHT22;10522;52.198;9.890;2023-03-15T03:45:09;2.10;99.90
20722;DHT22;10522;52.198;9.890;2023-03-15T03:47:35;2.10;99.90
20722;DHT22;10522;52.198;9.890;2023-03-15T03:50:01;2.10;99.90
20722;DHT22;10522;52.198;9.890;2023-03-15T03:52:27;2.10;99.90
20722;DHT22;10522;52.198;9.890;2023-03-15T03:54:52;2.10;99.90
20722;DHT22;10522;52.198;9.890;2023-03-15T03:57:18;2.00;99.90
20722;DHT22;10522;52.198;9.890;2023-03-15T03:59:43;2.00;99.90
20722;DHT22;10522;52.198;9.890;2023-03-15T04:02:09;2.00;99.90
20722;DHT22;10522;52.198;9.890;2023-03-15T04:04:35;1.90;99.90
20722;DHT22;10522;52.198;9.890;2023-03-15T04:07:00;1.90;99.90
20722;DHT22;10522;52.198;9.890;2023-03-15T04:09:27;1.80;99.90
20722;DHT22;10522;52.198;9.890;2023-03-15T04:11:52;1.80;99.90
20722;DHT22;10522;52.198;9.890;2023-03-15T04:14:18;1.70;99.90
20722;DHT22;10522;52.198;9.890;2023-03-15T04:16:44;1.70;99.90
20722;DHT22;10522;52.198;9.890;2023-03-15T04:19:09;1.60;99.90
20722;DHT22;10522;52.198;9.890;2023-03-15T04:21:37;1.60;99.90
20722;DHT22;10522;52.198;9.890;2023-03-15T04:24:02;1.50;99.90
20722;DHT22;10522;52.198;9.890;2023-03-15T04:26:28;1.50;99.90
20722;DHT22;10522;52.198;9.890;2023-03-15T04:28:55;1.50;99.90
20722;DHT22;10522;52.198;9.890;2023-03-15T04:31:22;1.50;99.90
20722;DHT22;10522;52.198;9.890;2023-03-15T04:33:54;1.50;99.90
20722;DHT22;10522;52.198;9.890;2023-03-15T04:36:23;1.60;99.90
20722;DHT22;10522;52.198;9.890;2023-03-15T04:38:49;1.70;99.90
20722;DHT22;10522;52.198;9.890;2023-03-15T04:41:16;1.70;99.90
20722;DHT22;10522;52.198;9.890;2023-03-15T04:43:43;1.80;99.90
20722;DHT22;10522;52.198;9.890;2023-03-15T04:46:08;1.80;99.90
20722;DHT22;10522;52.198;9.890;2023-03-15T04:48:35;1.80;99.90
20722;DHT22;10522;52.198;9.890;2023-03-15T04:51:00;1.80;99.90
20722;DHT22;10522;52.198;9.890;2023-03-15T04:53:26;1.90;99.90
20722;DHT22;10522;52.198;9.890;2023-03-15T04:55:52;1.90;99.90
20722;DHT22;10522;52.198;9.890;2023-03-15T04:58:18;1.90;99.90
20722;DHT22;10522;52.198;9.890;2023-03-15T05:00:43;1.90;99.90
20722;DHT22;10522;52.198;9.890;2023-03-15T05:03:09;2.00;99.90
20722;DHT22;10522;52.198;9.890;2023-03-15T05:05:35;2.00;99.90
20722;DHT22;10522;52.198;9.890;2023-03-15T05:08:01;2.10;99.90
20722;DHT22;10522;52.198;9.890;2023-03-15T05:10:26;2.10;99.90
20722;DHT22;10522;52.198;9.890;2023-03-15T05:12:54;2.00;99.90
20722;DHT22;10522;52.198;9.890;2023-03-15T05:15:20;2.10;99.90
20722;DHT22;10522;52.198;9.890;2023-03-15T05:17:45;2.00;99.90
20722;DHT22;10522;52.198;9.890;2023-03-15T05:20:13;2.00;99.90
20722;DHT22;10522;52.198;9.890;2023-03-15T05:22:39;2.10;99.90
20722;DHT22;10522;52.198;9.890;2023-03-15T05:25:06;2.10;99.90
20722;DHT22;10522;52.198;9.890;2023-03-15T05:27:32;2.00;99.90
20722;DHT22;10522;52.198;9.890;2023-03-15T05:29:59;2.00;99.90
20722;DHT22;10522;52.198;9.890;2023-03-15T05:32:29;2.00;99.90
20722;DHT22;10522;52.198;9.890;2023-03-15T05:35:02;1.90;99.90
20722;DHT22;10522;52.198;9.890;2023-03-15T05:37:28;1.90;99.90
20722;DHT22;10522;52.198;9.890;2023-03-15T05:39:54;2.00;99.90
20722;DHT22;10522;52.198;9.890;2023-03-15T05:42:20;2.00;99.90
20722;DHT22;10522;52.198;9.890;2023-03-15T05:44:55;2.00;99.90
20722;DHT22;10522;52.198;9.890;2023-03-15T05:47:22;2.00;99.90
20722;DHT22;10522;52.198;9.890;2023-03-15T05:49:48;2.00;99.90
20722;DHT22;10522;52.198;9.890;2023-03-15T05:52:14;2.00;99.90
20722;DHT22;10522;52.198;9.890;2023-03-15T05:54:40;2.00;99.90
20722;DHT22;10522;52.198;9.890;2023-03-15T05:57:06;2.00;99.90
20722;DHT22;10522;52.198;9.890;2023-03-15T05:59:32;2.10;99.90
20722;DHT22;10522;52.198;9.890;2023-03-15T06:01:57;2.10;99.90
20722;DHT22;10522;52.198;9.890;2023-03-15T06:04:23;2.10;99.90
20722;DHT22;10522;52.198;9.890;2023-03-15T06:06:50;2.10;99.90
20722;DHT22;10522;52.198;9.890;2023-03-15T06:09:15;2.10;99.90
20722;DHT22;10522;52.198;9.890;2023-03-15T06:11:41;2.20;99.90
20722;DHT22;10522;52.198;9.890;2023-03-15T06:14:06;2.20;99.90
20722;DHT22;10522;52.198;9.890;2023-03-15T06:16:32;2.20;99.90
20722;DHT22;10522;52.198;9.890;2023-03-15T06:18:58;2.20;99.90
20722;DHT22;10522;52.198;9.890;2023-03-15T06:21:23;2.20;99.90
20722;DHT22;10522;52.198;9.890;2023-03-15T06:23:49;2.30;99.90
20722;DHT22;10522;52.198;9.890;2023-03-15T06:26:15;2.30;99.90
20722;DHT22;10522;52.198;9.890;2023-03-15T06:28:43;2.30;99.90
20722;DHT22;10522;52.198;9.890;2023-03-15T06:31:10;2.30;99.90
20722;DHT22;10522;52.198;9.890;2023-03-15T06:33:36;2.40;99.90
20722;DHT22;10522;52.198;9.890;2023-03-15T06:36:01;2.30;99.90
20722;DHT22;10522;52.198;9.890;2023-03-15T06:38:27;2.30;99.90
20722;DHT22;10522;52.198;9.890;2023-03-15T06:40:53;2.40;99.90
20722;DHT22;10522;52.198;9.890;2023-03-15T06:43:20;2.40;99.90
20722;DHT22;10522;52.198;9.890;2023-03-15T06:45:46;2.40;99.90
20722;DHT22;10522;52.198;9.890;2023-03-15T06:48:13;2.40;99.90
20722;DHT22;10522;52.198;9.890;2023-03-15T06:50:39;2.40;99.90
20722;DHT22;10522;52.198;9.890;2023-03-15T06:53:05;2.40;99.90
20722;DHT22;10522;52.198;9.890;2023-03-15T06:55:31;2.40;99.90
20722;DHT22;10522;52.198;9.890;2023-03-15T06:57:56;2.40;99.90
20722;DHT22;10522;52.198;9.890;2023-03-15T07:00:22;2.50;99.90
20722;DHT22;10522;52.198;9.890;2023-03-15T07:02:48;2.50;99.90
20722;DHT22;10522;52.198;9.890;2023-03-15T07:05:13;2.60;99.90
20722;DHT22;10522;52.198;9.890;2023-03-15T07:07:39;2.60;99.90
20722;DHT22;10522;52.198;9.890;2023-03-15T07:10:05;2.60;99.90
20722;DHT22;10522;52.198;9.890;2023-03-15T07:12:31;2.50;99.90
20722;DHT22;10522;52.198;9.890;2023-03-15T07:14:56;2.60;99.90
20722;DHT22;10522;52.198;9.890;2023-03-15T07:17:22;2.70;99.90
20722;DHT22;10522;52.198;9.890;2023-03-15T07:19:48;2.70;99.90
20722;DHT22;10522;52.198;9.890;2023-03-15T07:22:15;2.90;99.90
20722;DHT22;10522;52.198;9.890;2023-03-15T07:24:40;3.00;99.90
20722;DHT22;10522;52.198;9.890;2023-03-15T07:27:06;3.10;99.90
20722;DHT22;10522;52.198;9.890;2023-03-15T07:29:31;3.20;99.90
20722;DHT22;10522;52.198;9.890;2023-03-15T07:31:57;3.40;99.90
20722;DHT22;10522;52.198;9.890;2023-03-15T07:34:23;3.50;99.90
20722;DHT22;10522;52.198;9.890;2023-03-15T07:36:48;3.60;99.90
20722;DHT22;10522;52.198;9.890;2023-03-15T07:39:14;3.60;99.90
20722;DHT22;10522;52.198;9.890;2023-03-15T07:41:40;3.60;99.90
20722;DHT22;10522;52.198;9.890;2023-03-15T07:44:06;3.60;99.90
20722;DHT22;10522;52.198;9.890;2023-03-15T07:46:32;3.60;99.90
20722;DHT22;10522;52.198;9.890;2023-03-15T07:48:57;3.50;99.90
20722;DHT22;10522;52.198;9.890;2023-03-15T07:51:23;3.40;99.90
20722;DHT22;10522;52.198;9.890;2023-03-15T07:53:48;3.30;99.90
20722;DHT22;10522;52.198;9.890;2023-03-15T07:56:15;3.10;99.90
20722;DHT22;10522;52.198;9.890;2023-03-15T07:58:40;3.10;99.90
20722;DHT22;10522;52.198;9.890;2023-03-15T08:01:06;3.20;99.90
20722;DHT22;10522;52.198;9.890;2023-03-15T08:03:32;3.40;99.90
20722;DHT22;10522;52.198;9.890;2023-03-15T08:05:57;3.60;99.90
20722;DHT22;10522;52.198;9.890;2023-03-15T08:08:23;3.60;99.90
20722;DHT22;10522;52.198;9.890;2023-03-15T08:10:48;3.70;99.90
20722;DHT22;10522;52.198;9.890;2023-03-15T08:13:14;3.90;99.90
20722;DHT22;10522;52.198;9.890;2023-03-15T08:15:40;4.00;99.90
20722;DHT22;10522;52.198;9.890;2023-03-15T08:18:06;4.10;99.90
20722;DHT22;10522;52.198;9.890;2023-03-15T08:20:31;4.30;99.90
20722;DHT22;10522;52.198;9.890;2023-03-15T08:22:58;4.50;99.90
20722;DHT22;10522;52.198;9.890;2023-03-15T08:25:25;4.50;99.90
20722;DHT22;10522;52.198;9.890;2023-03-15T08:27:53;4.40;99.90
20722;DHT22;10522;52.198;9.890;2023-03-15T08:30:19;4.10;99.90
20722;DHT22;10522;52.198;9.890;2023-03-15T08:32:46;4.00;99.90
20722;DHT22;10522;52.198;9.890;2023-03-15T08:35:13;4.00;99.90
20722;DHT22;10522;52.198;9.890;2023-03-15T08:37:40;4.10;99.90
20722;DHT22;10522;52.198;9.890;2023-03-15T08:40:06;3.90;99.90
20722;DHT22;10522;52.198;9.890;2023-03-15T08:42:35;3.80;99.90
20722;DHT22;10522;52.198;9.890;2023-03-15T08:45:03;3.80;99.90
20722;DHT22;10522;52.198;9.890;2023-03-15T08:47:29;4.30;99.90
20722;DHT22;10522;52.198;9.890;2023-03-15T08:49:55;4.30;99.90
20722;DHT22;10522;52.198;9.890;2023-03-15T08:52:21;4.40;99.90
20722;DHT22;10522;52.198;9.890;2023-03-15T08:54:47;4.60;99.90
20722;DHT22;10522;52.198;9.890;2023-03-15T08:57:13;4.60;99.90
20722;DHT22;10522;52.198;9.890;2023-03-15T08:59:39;4.40;99.90
20722;DHT22;10522;52.198;9.890;2023-03-15T09:02:05;4.50;99.90
20722;DHT22;10522;52.198;9.890;2023-03-15T09:04:32;4.60;99.90
20722;DHT22;10522;52.198;9.890;2023-03-15T09:06:58;4.70;99.90
20722;DHT22;10522;52.198;9.890;2023-03-15T09:09:23;4.70;99.90
20722;DHT22;10522;52.198;9.890;2023-03-15T09:11:49;4.90;99.90
20722;DHT22;10522;52.198;9.890;2023-03-15T09:14:15;5.00;99.90
20722;DHT22;10522;52.198;9.890;2023-03-15T09:16:40;5.00;99.90
20722;DHT22;10522;52.198;9.890;2023-03-15T09:19:06;5.40;99.90
20722;DHT22;10522;52.198;9.890;2023-03-15T09:21:31;5.40;99.90
20722;DHT22;10522;52.198;9.890;2023-03-15T09:23:57;5.70;99.90
20722;DHT22;10522;52.198;9.890;2023-03-15T09:26:22;5.60;99.90
20722;DHT22;10522;52.198;9.890;2023-03-15T09:28:48;5.40;99.90
20722;DHT22;10522;52.198;9.890;2023-03-15T09:31:14;5.40;99.90
20722;DHT22;10522;52.198;9.890;2023-03-15T09:33:39;5.30;99.90
20722;DHT22;10522;52.198;9.890;2023-03-15T09:36:05;5.40;99.90
20722;DHT22;10522;52.198;9.890;2023-03-15T09:38:31;5.40;99.90
20722;DHT22;10522;52.198;9.890;2023-03-15T09:41:00;5.50;99.90
20722;DHT22;10522;52.198;9.890;2023-03-15T09:43:53;6.00;99.90
20722;DHT22;10522;52.198;9.890;2023-03-15T09:46:31;6.10;99.90
20722;DHT22;10522;52.198;9.890;2023-03-15T09:49:13;6.40;99.90
20722;DHT22;10522;52.198;9.890;2023-03-15T09:51:47;6.10;99.90
20722;DHT22;10522;52.198;9.890;2023-03-15T09:54:19;6.50;99.90
20722;DHT22;10522;52.198;9.890;2023-03-15T09:57:15;6.60;99.90
20722;DHT22;10522;52.198;9.890;2023-03-15T09:59:46;6.80;99.90
20722;DHT22;10522;52.198;9.890;2023-03-15T10:02:20;6.90;99.90
20722;DHT22;10522;52.198;9.890;2023-03-15T10:04:48;6.50;99.90
20722;DHT22;10522;52.198;9.890;2023-03-15T10:07:15;6.40;99.90
20722;DHT22;10522;52.198;9.890;2023-03-15T10:09:41;6.40;99.90
20722;DHT22;10522;52.198;9.890;2023-03-15T10:15:18;6.80;99.90
20722;DHT22;10522;52.198;9.890;2023-03-15T10:17:50;6.70;99.90
20722;DHT22;10522;52.198;9.890;2023-03-15T10:20:48;6.30;99.90
20722;DHT22;10522;52.198;9.890;2023-03-15T10:23:48;6.40;99.90
20722;DHT22;10522;52.198;9.890;2023-03-15T10:26:18;6.70;99.90
20722;DHT22;10522;52.198;9.890;2023-03-15T10:28:46;6.90;99.90
20722;DHT22;10522;52.198;9.890;2023-03-15T10:31:15;6.40;99.90
20722;DHT22;10522;52.198;9.890;2023-03-15T10:33:43;6.50;99.90
20722;DHT22;10522;52.198;9.890;2023-03-15T10:36:15;6.80;99.90
20722;DHT22;10522;52.198;9.890;2023-03-15T10:38:43;6.50;99.90
20722;DHT22;10522;52.198;9.890;2023-03-15T10:41:11;6.80;99.90
20722;DHT22;10522;52.198;9.890;2023-03-15T10:43:38;7.10;99.90
20722;DHT22;10522;52.198;9.890;2023-03-15T10:46:07;7.40;99.90
20722;DHT22;10522;52.198;9.890;2023-03-15T10:49:27;6.80;99.90
20722;DHT22;10522;52.198;9.890;2023-03-15T10:51:27;6.30;99.90
20722;DHT22;10522;52.198;9.890;2023-03-15T10:54:00;5.80;99.90
20722;DHT22;10522;52.198;9.890;2023-03-15T10:56:29;5.50;99.90
20722;DHT22;10522;52.198;9.890;2023-03-15T10:58:56;5.20;99.90
20722;DHT22;10522;52.198;9.890;2023-03-15T11:01:26;5.10;99.90
20722;DHT22;10522;52.198;9.890;2023-03-15T11:04:14;4.90;99.90
20722;DHT22;10522;52.198;9.890;2023-03-15T11:09:21;4.70;99.90
20722;DHT22;10522;52.198;9.890;2023-03-15T11:11:50;4.60;99.90
20722;DHT22;10522;52.198;9.890;2023-03-15T11:14:17;4.50;99.90
20722;DHT22;10522;52.198;9.890;2023-03-15T11:16:49;4.50;99.90
20722;DHT22;10522;52.198;9.890;2023-03-15T11:19:17;5.00;99.90
20722;DHT22;10522;52.198;9.890;2023-03-15T11:21:44;5.70;99.90
20722;DHT22;10522;52.198;9.890;2023-03-15T11:24:23;6.30;99.90
20722;DHT22;10522;52.198;9.890;2023-03-15T11:26:51;6.70;99.90
20722;DHT22;10522;52.198;9.890;2023-03-15T11:29:31;6.80;99.90
20722;DHT22;10522;52.198;9.890;2023-03-15T11:32:10;7.30;99.90
20722;DHT22;10522;52.198;9.890;2023-03-15T11:34:47;7.30;99.90
20722;DHT22;10522;52.198;9.890;2023-03-15T11:37:19;7.10;99.90
20722;DHT22;10522;52.198;9.890;2023-03-15T11:42:34;6.50;99.90
20722;DHT22;10522;52.198;9.890;2023-03-15T11:45:47;7.00;99.90
20722;DHT22;10522;52.198;9.890;2023-03-15T11:47:55;7.30;99.90
20722;DHT22;10522;52.198;9.890;2023-03-15T11:50:22;7.30;99.90
20722;DHT22;10522;52.198;9.890;2023-03-15T11:52:50;7.50;99.90
20722;DHT22;10522;52.198;9.890;2023-03-15T11:55:19;7.00;99.90
20722;DHT22;10522;52.198;9.890;2023-03-15T11:57:48;7.10;99.90
20722;DHT22;10522;52.198;9.890;2023-03-15T12:00:24;7.10;99.90
20722;DHT22;10522;52.198;9.890;2023-03-15T12:02:56;7.30;99.90
20722;DHT22;10522;52.198;9.890;2023-03-15T12:10:46;7.00;99.90
20722;DHT22;10522;52.198;9.890;2023-03-15T12:13:18;6.80;99.90
20722;DHT22;10522;52.198;9.890;2023-03-15T12:15:45;6.70;99.90
20722;DHT22;10522;52.198;9.890;2023-03-15T12:18:17;6.60;99.90
20722;DHT22;10522;52.198;9.890;2023-03-15T12:20:56;6.00;99.90
20722;DHT22;10522;52.198;9.890;2023-03-15T12:24:14;5.90;99.90
20722;DHT22;10522;52.198;9.890;2023-03-15T12:26:24;6.00;99.90
20722;DHT22;10522;52.198;9.890;2023-03-15T12:29:10;6.00;99.90
20722;DHT22;10522;52.198;9.890;2023-03-15T12:31:45;6.10;99.90
20722;DHT22;10522;52.198;9.890;2023-03-15T12:34:24;6.10;99.90
20722;DHT22;10522;52.198;9.890;2023-03-15T12:36:54;6.50;99.90
20722;DHT22;10522;52.198;9.890;2023-03-15T12:39:36;6.40;99.90
20722;DHT22;10522;52.198;9.890;2023-03-15T12:42:03;6.60;99.90
20722;DHT22;10522;52.198;9.890;2023-03-15T12:47:00;7.70;99.90
20722;DHT22;10522;52.198;9.890;2023-03-15T12:51:56;8.30;99.90
20722;DHT22;10522;52.198;9.890;2023-03-15T12:54:24;8.50;99.90
20722;DHT22;10522;52.198;9.890;2023-03-15T12:56:56;8.70;99.90
20722;DHT22;10522;52.198;9.890;2023-03-15T12:59:37;8.50;99.90
20722;DHT22;10522;52.198;9.890;2023-03-15T13:05:27;5.20;99.90
20722;DHT22;10522;52.198;9.890;2023-03-15T13:07:55;4.50;99.90
20722;DHT22;10522;52.198;9.890;2023-03-15T13:10:46;4.40;99.90
20722;DHT22;10522;52.198;9.890;2023-03-15T13:19:20;4.80;99.90
20722;DHT22;10522;52.198;9.890;2023-03-15T13:22:10;4.60;99.90
20722;DHT22;10522;52.198;9.890;2023-03-15T13:27:58;4.70;99.90
20722;DHT22;10522;52.198;9.890;2023-03-15T13:30:31;4.40;99.90
20722;DHT22;10522;52.198;9.890;2023-03-15T13:33:28;4.70;99.90
20722;DHT22;10522;52.198;9.890;2023-03-15T13:36:12;4.70;99.90
20722;DHT22;10522;52.198;9.890;2023-03-15T13:41:27;4.50;99.90
20722;DHT22;10522;52.198;9.890;2023-03-15T13:43:59;4.10;99.90
20722;DHT22;10522;52.198;9.890;2023-03-15T13:46:27;4.00;99.90
20722;DHT22;10522;52.198;9.890;2023-03-15T13:48:54;4.00;99.90
20722;DHT22;10522;52.198;9.890;2023-03-15T13:51:26;4.10;99.90
20722;DHT22;10522;52.198;9.890;2023-03-15T13:54:04;4.20;99.90
20722;DHT22;10522;52.198;9.890;2023-03-15T13:56:36;4.30;99.90
20722;DHT22;10522;52.198;9.890;2023-03-15T13:59:03;4.60;99.90
20722;DHT22;10522;52.198;9.890;2023-03-15T14:01:31;4.60;99.90
20722;DHT22;10522;52.198;9.890;2023-03-15T14:04:09;4.80;99.90
20722;DHT22;10522;52.198;9.890;2023-03-15T14:06:37;4.70;99.90
20722;DHT22;10522;52.198;9.890;2023-03-15T14:11:42;5.60;99.90
20722;DHT22;10522;52.198;9.890;2023-03-15T14:14:26;5.50;99.90
20722;DHT22;10522;52.198;9.890;2023-03-15T14:16:53;5.40;99.90
20722;DHT22;10522;52.198;9.890;2023-03-15T14:19:23;5.90;99.90
20722;DHT22;10522;52.198;9.890;2023-03-15T14:21:57;6.20;99.90
20722;DHT22;10522;52.198;9.890;2023-03-15T14:24:39;6.40;99.90
20722;DHT22;10522;52.198;9.890;2023-03-15T14:27:29;6.60;99.90
20722;DHT22;10522;52.198;9.890;2023-03-15T14:30:00;6.80;99.90
20722;DHT22;10522;52.198;9.890;2023-03-15T14:35:30;7.50;99.90
20722;DHT22;10522;52.198;9.890;2023-03-15T14:40:45;8.00;99.90
20722;DHT22;10522;52.198;9.890;2023-03-15T14:43:11;8.20;99.90
20722;DHT22;10522;52.198;9.890;2023-03-15T14:45:39;8.30;99.90
20722;DHT22;10522;52.198;9.890;2023-03-15T14:48:28;7.90;99.90
20722;DHT22;10522;52.198;9.890;2023-03-15T14:50:54;8.00;99.90
20722;DHT22;10522;52.198;9.890;2023-03-15T14:53:23;7.70;99.90
20722;DHT22;10522;52.198;9.890;2023-03-15T14:55:49;8.00;99.90
20722;DHT22;10522;52.198;9.890;2023-03-15T14:58:17;8.60;99.90
20722;DHT22;10522;52.198;9.890;2023-03-15T15:00:47;8.30;99.90
20722;DHT22;10522;52.198;9.890;2023-03-15T15:03:22;8.50;99.90
20722;DHT22;10522;52.198;9.890;2023-03-15T15:05:50;8.30;99.90
20722;DHT22;10522;52.198;9.890;2023-03-15T15:08:18;8.40;99.90
20722;DHT22;10522;52.198;9.890;2023-03-15T15:10:47;8.40;99.90
20722;DHT22;10522;52.198;9.890;2023-03-15T15:13:22;8.70;99.90
20722;DHT22;10522;52.198;9.890;2023-03-15T15:15:49;9.30;99.90
20722;DHT22;10522;52.198;9.890;2023-03-15T15:18:15;9.10;99.90
20722;DHT22;10522;52.198;9.890;2023-03-15T15:20:41;8.90;99.90
20722;DHT22;10522;52.198;9.890;2023-03-15T15:23:19;9.60;99.90
20722;DHT22;10522;52.198;9.890;2023-03-15T15:25:46;9.70;99.90
20722;DHT22;10522;52.198;9.890;2023-03-15T15:28:13;9.70;99.90
20722;DHT22;10522;52.198;9.890;2023-03-15T15:30:39;9.80;99.90
20722;DHT22;10522;52.198;9.890;2023-03-15T15:33:05;10.30;99.90
20722;DHT22;10522;52.198;9.890;2023-03-15T15:35:30;10.30;99.90
20722;DHT22;10522;52.198;9.890;2023-03-15T15:37:56;10.10;99.90
20722;DHT22;10522;52.198;9.890;2023-03-15T15:40:26;10.50;99.90
20722;DHT22;10522;52.198;9.890;2023-03-15T15:42:52;10.50;99.90
20722;DHT22;10522;52.198;9.890;2023-03-15T15:45:19;10.50;99.90
20722;DHT22;10522;52.198;9.890;2023-03-15T15:47:45;10.60;99.90
20722;DHT22;10522;52.198;9.890;2023-03-15T15:50:13;10.80;99.90
20722;DHT22;10522;52.198;9.890;2023-03-15T15:52:45;10.70;99.90
20722;DHT22;10522;52.198;9.890;2023-03-15T15:55:14;9.70;99.90
20722;DHT22;10522;52.198;9.890;2023-03-15T15:57:40;9.50;99.90
20722;DHT22;10522;52.198;9.890;2023-03-15T16:00:10;10.00;99.90
20722;DHT22;10522;52.198;9.890;2023-03-15T16:02:38;10.00;99.90
20722;DHT22;10522;52.198;9.890;2023-03-15T16:05:04;9.90;99.90
20722;DHT22;10522;52.198;9.890;2023-03-15T16:07:30;9.90;99.90
20722;DHT22;10522;52.198;9.890;2023-03-15T16:09:57;9.90;99.90
20722;DHT22;10522;52.198;9.890;2023-03-15T16:12:25;9.70;99.90
20722;DHT22;10522;52.198;9.890;2023-03-15T16:14:51;10.20;99.90
20722;DHT22;10522;52.198;9.890;2023-03-15T16:17:19;10.20;99.90
20722;DHT22;10522;52.198;9.890;2023-03-15T16:19:49;10.10;99.90
20722;DHT22;10522;52.198;9.890;2023-03-15T16:22:16;10.30;99.90
20722;DHT22;10522;52.198;9.890;2023-03-15T16:24:44;10.10;99.90
20722;DHT22;10522;52.198;9.890;2023-03-15T16:27:16;10.00;99.90
20722;DHT22;10522;52.198;9.890;2023-03-15T16:29:47;10.00;99.90
20722;DHT22;10522;52.198;9.890;2023-03-15T16:32:23;10.00;99.90
20722;DHT22;10522;52.198;9.890;2023-03-15T16:34:51;9.60;99.90
20722;DHT22;10522;52.198;9.890;2023-03-15T16:37:21;8.80;99.90
20722;DHT22;10522;52.198;9.890;2023-03-15T16:39:48;8.20;99.90
20722;DHT22;10522;52.198;9.890;2023-03-15T16:42:16;7.70;99.90